createdAt,value
2022-08-26T00:00:48.234Z,92.8
2022-08-26T00:02:04.526Z,92.7
2022-08-26T00:03:19.837Z,92.5
2022-08-26T00:04:36.134Z,92.7
2022-08-26T00:05:52.430Z,92.8
2022-08-26T00:07:08.725Z,92.8
2022-08-26T00:08:25.013Z,92.8
2022-08-26T00:09:41.314Z,92.8
2022-08-26T00:10:57.608Z,92.8
2022-08-26T00:12:13.896Z,92.8
2022-08-26T00:13:30.183Z,92.8
2022-08-26T00:14:46.482Z,92.7
2022-08-26T00:16:02.774Z,92.7
2022-08-26T00:17:19.072Z,92.8
2022-08-26T00:18:35.375Z,92.8
2022-08-26T00:19:50.688Z,93
2022-08-26T00:21:06.976Z,93
2022-08-26T00:23:39.565Z,92.9
2022-08-26T00:24:55.850Z,93
2022-08-26T00:26:12.148Z,93
2022-08-26T00:27:28.449Z,93.1
2022-08-26T00:28:44.731Z,93.3
2022-08-26T00:30:01.030Z,93.2
2022-08-26T00:31:17.319Z,93.3
2022-08-26T00:32:33.620Z,93.4
2022-08-26T00:33:49.921Z,93.3
2022-08-26T00:35:06.214Z,93.4
2022-08-26T00:36:21.508Z,93.5
2022-08-26T00:38:54.000Z,93.9
2022-08-26T00:40:10.390Z,94
2022-08-26T00:41:26.701Z,94
2022-08-26T00:42:42.985Z,94.3
2022-08-26T00:43:59.274Z,94.5
2022-08-26T00:45:15.586Z,94.3
2022-08-26T00:46:31.865Z,94.5
2022-08-26T00:47:48.155Z,94.5
2022-08-26T00:49:04.465Z,94.5
2022-08-26T00:50:20.756Z,94.5
2022-08-26T00:52:53.345Z,94.5
2022-08-26T00:54:08.659Z,94.5
2022-08-26T00:55:24.943Z,94.5
2022-08-26T00:56:41.250Z,94.5
2022-08-26T00:57:57.539Z,94.5
2022-08-26T00:59:13.817Z,94.5
2022-08-26T01:00:30.117Z,94.3
2022-08-26T01:01:46.416Z,94.5
2022-08-26T01:03:02.711Z,94.5
2022-08-26T01:04:19.000Z,94.5
2022-08-26T01:05:35.303Z,94.5
2022-08-26T01:06:51.582Z,94.3
2022-08-26T01:09:24.177Z,94.9
2022-08-26T01:10:39.489Z,95
2022-08-26T01:11:55.784Z,95.1
2022-08-26T01:13:12.073Z,95.1
2022-08-26T01:14:28.360Z,95.2
2022-08-26T01:15:44.671Z,95.3
2022-08-26T01:17:00.961Z,95.3
2022-08-26T01:18:17.251Z,95.4
2022-08-26T01:19:33.556Z,95.4
2022-08-26T01:20:49.843Z,95.5
2022-08-26T01:22:06.132Z,95.7
2022-08-26T01:23:22.432Z,95.7
2022-08-26T01:24:38.733Z,95.8
2022-08-26T01:25:55.015Z,95.9
2022-08-26T01:27:10.320Z,95.8
2022-08-26T01:28:26.632Z,95.8
2022-08-26T01:29:42.915Z,95.9
2022-08-26T01:32:15.499Z,95.9
2022-08-26T01:33:31.793Z,95.9
2022-08-26T01:34:48.089Z,96
2022-08-26T01:36:04.377Z,96.1
2022-08-26T01:37:20.670Z,96.3
2022-08-26T01:38:36.978Z,96.2
2022-08-26T01:39:53.265Z,96.2
2022-08-26T01:41:09.554Z,96.2
2022-08-26T01:42:25.850Z,96.1
2022-08-26T01:43:41.175Z,96.2
2022-08-26T01:44:57.454Z,96.2
2022-08-26T01:46:13.747Z,96.2
2022-08-26T01:47:30.047Z,96.3
2022-08-26T01:48:46.335Z,96.4
2022-08-26T01:50:02.639Z,96.5
2022-08-26T01:51:18.939Z,96.6
2022-08-26T01:52:35.223Z,96.5
2022-08-26T01:53:51.521Z,96.5
2022-08-26T01:55:07.822Z,96.6
2022-08-26T01:56:24.116Z,96.4
2022-08-26T01:57:40.396Z,96.5
2022-08-26T01:58:56.700Z,96.5
2022-08-26T02:00:12.014Z,96.6
2022-08-26T02:01:28.309Z,96.5
2022-08-26T02:02:44.592Z,96.6
2022-08-26T02:04:00.887Z,96.6
2022-08-26T02:05:17.192Z,96.7
2022-08-26T02:06:33.482Z,96.7
2022-08-26T02:07:49.780Z,96.8
2022-08-26T02:09:06.054Z,97
2022-08-26T02:10:22.359Z,96.8
2022-08-26T02:12:54.948Z,96.6
2022-08-26T02:14:11.234Z,96.7
2022-08-26T02:15:27.528Z,96.6
2022-08-26T02:16:42.840Z,96.4
2022-08-26T02:17:59.143Z,96.4
2022-08-26T02:19:15.441Z,96.6
2022-08-26T02:20:31.732Z,96.8
2022-08-26T02:21:48.014Z,96.7
2022-08-26T02:23:04.309Z,97.3
2022-08-26T02:24:20.616Z,97.3
2022-08-26T02:25:36.901Z,97.4
2022-08-26T02:26:53.190Z,96.9
2022-08-26T02:28:09.500Z,96.5
2022-08-26T02:29:25.793Z,96.6
2022-08-26T02:30:42.074Z,96.3
2022-08-26T02:31:58.376Z,96.4
2022-08-26T02:33:13.692Z,96.6
2022-08-26T02:34:29.968Z,96.9
2022-08-26T02:35:46.266Z,96.9
2022-08-26T02:37:02.567Z,96.9
2022-08-26T02:38:18.853Z,97
2022-08-26T02:40:51.460Z,96.9
2022-08-26T02:42:07.751Z,97.3
2022-08-26T02:43:24.031Z,97.3
2022-08-26T02:44:40.324Z,97.3
2022-08-26T02:45:56.628Z,97.5
2022-08-26T02:47:12.918Z,97.3
2022-08-26T02:48:29.207Z,97.1
2022-08-26T02:49:44.524Z,97
2022-08-26T02:51:00.806Z,97.1
2022-08-26T02:52:17.108Z,97.5
2022-08-26T02:53:33.401Z,97.3
2022-08-26T02:54:49.706Z,97.5
2022-08-26T02:56:06.005Z,97.5
2022-08-26T02:57:22.290Z,97.8
2022-08-26T02:58:38.590Z,97.7
2022-08-26T02:59:54.870Z,97.5
2022-08-26T03:01:11.168Z,97.7
2022-08-26T03:02:27.464Z,97.5
2022-08-26T03:03:43.753Z,97.8
2022-08-26T03:05:00.043Z,97.5
2022-08-26T03:06:15.354Z,97.7
2022-08-26T03:07:31.650Z,97.8
2022-08-26T03:08:47.940Z,97.8
2022-08-26T03:10:04.242Z,98
2022-08-26T03:11:20.529Z,97.8
2022-08-26T03:12:36.837Z,97.7
2022-08-26T03:13:53.122Z,97.5
2022-08-26T03:15:09.420Z,97.5
2022-08-26T03:16:25.712Z,97.8
2022-08-26T03:18:58.296Z,97.9
2022-08-26T03:20:14.590Z,98.4
2022-08-26T03:21:30.893Z,98.7
2022-08-26T03:22:46.196Z,98.8
2022-08-26T03:24:02.491Z,99.1
2022-08-26T03:26:35.072Z,98.8
2022-08-26T03:27:51.367Z,99.1
2022-08-26T03:29:07.677Z,99.1
2022-08-26T03:30:23.958Z,98.9
2022-08-26T03:31:40.250Z,99.1
2022-08-26T03:34:12.794Z,99.2
2022-08-26T03:35:28.063Z,99.1
2022-08-26T03:36:43.324Z,99.1
2022-08-26T03:37:59.555Z,99.1
2022-08-26T03:39:15.868Z,98.8
2022-08-26T03:40:32.116Z,98.6
2022-08-26T03:41:48.359Z,98.7
2022-08-26T03:43:04.594Z,98.8
2022-08-26T03:44:20.831Z,98.7
2022-08-26T03:45:37.060Z,98.5
2022-08-26T03:46:53.306Z,98.8
2022-08-26T03:48:09.555Z,98.9
2022-08-26T03:49:24.805Z,98.7
2022-08-26T03:50:40.075Z,98.7
2022-08-26T03:53:12.564Z,98.7
2022-08-26T03:54:28.784Z,98.3
2022-08-26T03:57:01.265Z,98.7
2022-08-26T03:59:33.755Z,98.8
2022-08-26T04:00:49.990Z,98.7
2022-08-26T04:02:05.255Z,98.7
2022-08-26T04:03:21.492Z,99
2022-08-26T04:04:37.722Z,99.2
2022-08-26T04:05:53.961Z,98.8
2022-08-26T04:07:09.238Z,98.7
2022-08-26T04:08:24.490Z,98.7
2022-08-26T04:09:40.725Z,99
2022-08-26T04:10:56.967Z,99.5
2022-08-26T04:12:13.205Z,99.4
2022-08-26T04:13:29.446Z,99.3
2022-08-26T04:14:45.694Z,99.3
2022-08-26T04:16:01.935Z,99.1
2022-08-26T04:17:18.163Z,99
2022-08-26T04:18:34.404Z,99.4
2022-08-26T04:19:50.656Z,99
2022-08-26T04:21:05.906Z,98.7
2022-08-26T04:22:21.158Z,98.9
2022-08-26T04:23:37.406Z,99
2022-08-26T04:24:53.643Z,99
2022-08-26T04:27:26.120Z,99.1
2022-08-26T04:28:42.361Z,98.7
2022-08-26T04:29:58.612Z,99.4
2022-08-26T04:31:14.851Z,99.3
2022-08-26T04:32:31.081Z,99.3
2022-08-26T04:35:03.575Z,100
2022-08-26T04:36:19.814Z,100
2022-08-26T04:37:35.067Z,100
2022-08-26T04:38:50.323Z,100
2022-08-26T04:40:06.574Z,100
2022-08-26T04:41:22.804Z,100
2022-08-26T04:42:39.036Z,99.8
2022-08-26T04:43:55.287Z,99.5
2022-08-26T04:45:11.536Z,100
2022-08-26T04:46:27.772Z,100
2022-08-26T04:47:44.008Z,100
2022-08-26T04:49:00.251Z,100
2022-08-26T04:50:16.487Z,100
2022-08-26T04:51:31.755Z,100
2022-08-26T04:52:47.012Z,100
2022-08-26T04:54:03.234Z,100
2022-08-26T04:55:19.479Z,100
2022-08-26T04:56:35.736Z,100
2022-08-26T04:57:51.974Z,100
2022-08-26T04:59:08.203Z,100
2022-08-26T05:00:24.441Z,99.7
2022-08-26T05:01:40.675Z,99.5
2022-08-26T05:02:56.927Z,99.4
2022-08-26T05:04:13.160Z,99.1
2022-08-26T05:05:29.399Z,99.1
2022-08-26T05:06:45.639Z,99
2022-08-26T05:08:01.880Z,98.7
2022-08-26T05:09:17.141Z,98.7
2022-08-26T05:10:33.379Z,98.4
2022-08-26T05:14:22.100Z,97.9
2022-08-26T05:15:37.364Z,97.6
2022-08-26T05:16:52.626Z,97.2
2022-08-26T05:18:08.851Z,97.1
2022-08-26T05:20:41.343Z,96.7
2022-08-26T05:21:57.576Z,96.7
2022-08-26T05:23:13.826Z,96.4
2022-08-26T05:24:30.060Z,96.1
2022-08-26T05:27:02.546Z,95.8
2022-08-26T05:28:18.775Z,96.2
2022-08-26T05:29:35.021Z,95
2022-08-26T05:30:51.269Z,94.8
2022-08-26T05:32:06.525Z,94.6
2022-08-26T05:33:21.769Z,94.1
2022-08-26T05:34:38.014Z,93.8
2022-08-26T05:35:54.257Z,93.9
2022-08-26T05:37:10.501Z,93.5
2022-08-26T05:38:26.732Z,93.4
2022-08-26T05:39:42.982Z,93.9
2022-08-26T05:40:59.217Z,93.9
2022-08-26T05:42:15.449Z,93.9
2022-08-26T05:43:31.697Z,93.9
2022-08-26T05:44:47.939Z,93.7
2022-08-26T05:46:03.202Z,93.2
2022-08-26T05:47:18.000Z,92.9
2022-08-26T05:48:34.700Z,92.5
2022-08-26T05:49:50.937Z,92.3
2022-08-26T05:51:07.176Z,92.5
2022-08-26T05:52:23.420Z,92.3
2022-08-26T05:53:39.648Z,92.2
2022-08-26T05:54:55.904Z,91.5
2022-08-26T05:56:12.127Z,91.4
2022-08-26T05:57:28.383Z,91.5
2022-08-26T05:58:44.619Z,91.7
2022-08-26T05:59:59.874Z,91
2022-08-26T06:01:15.133Z,91
2022-08-26T06:02:31.385Z,91.1
2022-08-26T06:03:47.613Z,90.8
2022-08-26T06:06:20.098Z,90.7
2022-08-26T06:07:36.327Z,89.7
2022-08-26T06:08:52.576Z,89.5
2022-08-26T06:10:08.812Z,89.6
2022-08-26T06:11:25.066Z,89.4
2022-08-26T06:12:41.305Z,88.9
2022-08-26T06:13:57.542Z,89
2022-08-26T06:15:13.786Z,89
2022-08-26T06:16:30.009Z,88.2
2022-08-26T06:17:45.263Z,87.8
2022-08-26T06:19:01.510Z,88
2022-08-26T06:20:17.745Z,87.9
2022-08-26T06:21:34.000Z,88.2
2022-08-26T06:22:50.233Z,88.1
2022-08-26T06:24:06.467Z,87.7
2022-08-26T06:25:22.000Z,87.1
2022-08-26T06:26:38.946Z,86.8
2022-08-26T06:29:11.431Z,87
2022-08-26T06:30:27.684Z,86.4
2022-08-26T06:31:43.920Z,86
2022-08-26T06:33:00.157Z,85.3
2022-08-26T06:34:15.406Z,84.8
2022-08-26T06:35:31.647Z,84.5
2022-08-26T06:36:47.899Z,84.3
2022-08-26T06:38:04.121Z,84.1
2022-08-26T06:39:20.377Z,83.8
2022-08-26T06:40:36.614Z,83.9
2022-08-26T06:41:52.850Z,83
2022-08-26T06:44:25.337Z,83.6
2022-08-26T06:45:41.579Z,83
2022-08-26T06:46:57.818Z,83
2022-08-26T06:48:14.046Z,82.9
2022-08-26T06:49:30.283Z,82.8
2022-08-26T06:52:01.796Z,82.3
2022-08-26T06:53:17.051Z,81.8
2022-08-26T06:54:32.315Z,80.8
2022-08-26T06:55:48.553Z,80
2022-08-26T06:57:04.796Z,79.3
2022-08-26T06:58:21.024Z,80.4
2022-08-26T06:59:37.276Z,80.2
2022-08-26T07:00:53.511Z,79.4
2022-08-26T07:02:09.753Z,78.8
2022-08-26T07:03:25.980Z,78.5
2022-08-26T07:04:42.237Z,78.5
2022-08-26T07:05:58.470Z,78.8
2022-08-26T07:07:13.737Z,79.2
2022-08-26T07:08:28.984Z,78.9
2022-08-26T07:09:45.222Z,79.1
2022-08-26T07:11:01.468Z,78.5
2022-08-26T07:12:17.712Z,79
2022-08-26T07:13:33.936Z,79.7
2022-08-26T07:14:50.195Z,80.3
2022-08-26T07:16:06.418Z,79.5
2022-08-26T07:17:22.674Z,80
2022-08-26T07:18:38.907Z,79.9
2022-08-26T07:19:55.147Z,81.3
2022-08-26T07:21:11.383Z,80.8
2022-08-26T07:22:27.628Z,80.6
2022-08-26T07:23:43.870Z,80.8
2022-08-26T07:24:59.126Z,81.2
2022-08-26T07:26:15.363Z,81.2
2022-08-26T07:27:31.608Z,82
2022-08-26T07:28:47.838Z,80.3
2022-08-26T07:30:04.074Z,80.4
2022-08-26T07:31:20.334Z,78.3
2022-08-26T07:32:36.570Z,81.8
2022-08-26T07:33:52.808Z,80.4
2022-08-26T07:35:09.048Z,79.5
2022-08-26T07:36:25.287Z,79.3
2022-08-26T07:37:41.527Z,79.9
2022-08-26T07:38:57.761Z,81.8
2022-08-26T07:40:14.015Z,80.1
2022-08-26T07:41:29.264Z,80.3
2022-08-26T07:42:45.503Z,80
2022-08-26T07:44:01.751Z,79.3
2022-08-26T07:46:34.217Z,79
2022-08-26T07:47:50.468Z,79.2
2022-08-26T07:49:06.711Z,79.5
2022-08-26T07:50:22.951Z,78.9
2022-08-26T07:51:39.180Z,79.3
2022-08-26T07:52:55.416Z,78.7
2022-08-26T07:54:11.668Z,79.3
2022-08-26T07:55:27.898Z,77.2
2022-08-26T07:56:44.142Z,76.6
2022-08-26T07:57:59.412Z,76.8
2022-08-26T08:00:31.874Z,76.5
2022-08-26T08:01:48.115Z,77.4
2022-08-26T08:03:04.372Z,77.2
2022-08-26T08:04:20.611Z,75.5
2022-08-26T08:05:36.838Z,75.9
2022-08-26T08:06:53.086Z,74.8
2022-08-26T08:08:09.321Z,77
2022-08-26T08:09:25.556Z,77.5
2022-08-26T08:10:41.799Z,76.4
2022-08-26T08:11:58.054Z,76.7
2022-08-26T08:13:14.291Z,76.3
2022-08-26T08:15:45.774Z,74.5
2022-08-26T08:17:01.051Z,75
2022-08-26T08:18:17.273Z,73.3
2022-08-26T08:20:49.767Z,73.2
2022-08-26T08:22:05.019Z,76.2
2022-08-26T08:23:20.273Z,73.1
2022-08-26T08:24:36.525Z,73.8
2022-08-26T08:25:52.750Z,72.7
2022-08-26T08:27:08.997Z,74.2
2022-08-26T08:28:25.236Z,71.5
2022-08-26T08:30:57.731Z,71.7
2022-08-26T08:32:13.956Z,70.6
2022-08-26T08:34:46.452Z,71.5
2022-08-26T08:36:02.691Z,70.8
2022-08-26T08:37:18.930Z,72
2022-08-26T08:38:34.180Z,70.7
2022-08-26T08:41:05.676Z,72.5
2022-08-26T08:42:21.922Z,72.5
2022-08-26T08:43:38.165Z,71.6
2022-08-26T08:44:54.397Z,72.8
2022-08-26T08:46:10.645Z,74.8
2022-08-26T08:47:26.890Z,74.3
2022-08-26T08:48:43.129Z,75.1
2022-08-26T08:49:59.366Z,73.4
2022-08-26T08:51:15.595Z,73.2
2022-08-26T08:53:48.085Z,74
2022-08-26T08:55:04.332Z,74.5
2022-08-26T08:56:19.585Z,73
2022-08-26T08:57:35.815Z,72.4
2022-08-26T08:58:52.069Z,73.9
2022-08-26T09:01:24.551Z,74.1
2022-08-26T09:02:40.778Z,74
2022-08-26T09:03:57.029Z,72.4
2022-08-26T09:05:13.260Z,73
2022-08-26T09:06:29.509Z,73
2022-08-26T09:07:45.748Z,71.9
2022-08-26T09:09:01.986Z,72.5
2022-08-26T09:10:18.218Z,74.3
2022-08-26T09:11:34.458Z,73.3
2022-08-26T09:12:49.731Z,73.8
2022-08-26T09:14:05.971Z,73.9
2022-08-26T09:15:22.206Z,71.5
2022-08-26T09:16:38.446Z,73.7
2022-08-26T09:17:54.682Z,75.9
2022-08-26T09:19:10.923Z,75.4
2022-08-26T09:20:26.182Z,73.6
2022-08-26T09:21:41.448Z,73.5
2022-08-26T09:22:57.689Z,73.5
2022-08-26T09:24:13.922Z,73.6
2022-08-26T09:25:30.156Z,73.7
2022-08-26T09:26:46.411Z,70.9
2022-08-26T09:28:02.650Z,70.8
2022-08-26T09:29:18.879Z,72.8
2022-08-26T09:31:51.359Z,73.6
2022-08-26T09:33:07.609Z,71.7
2022-08-26T09:34:23.845Z,71.3
2022-08-26T09:35:40.088Z,73.7
2022-08-26T09:36:56.323Z,73.7
2022-08-26T09:38:11.584Z,72.2
2022-08-26T09:39:27.819Z,70.7
2022-08-26T09:40:44.062Z,71.1
2022-08-26T09:42:00.310Z,72.2
2022-08-26T09:43:16.548Z,72
2022-08-26T09:44:32.775Z,73.4
2022-08-26T09:47:05.261Z,72
2022-08-26T09:48:21.515Z,74.2
2022-08-26T09:49:37.737Z,70.1
2022-08-26T09:50:53.993Z,69.5
2022-08-26T09:52:10.232Z,71.1
2022-08-26T09:53:26.469Z,72.4
2022-08-26T09:54:41.716Z,69.9
2022-08-26T09:55:57.964Z,71.2
2022-08-26T09:57:14.211Z,70.4
2022-08-26T09:58:29.464Z,71.4
2022-08-26T09:59:44.711Z,70.5
2022-08-26T10:01:00.969Z,71.8
2022-08-26T10:02:17.198Z,70
2022-08-26T10:03:33.436Z,71.1
2022-08-26T10:04:49.678Z,70.5
2022-08-26T10:06:05.917Z,72
2022-08-26T10:07:22.154Z,73
2022-08-26T10:08:38.403Z,69.1
2022-08-26T10:09:54.631Z,69.8
2022-08-26T10:11:10.888Z,69.9
2022-08-26T10:12:27.126Z,70.3
2022-08-26T10:13:43.364Z,70.6
2022-08-26T10:14:59.613Z,71.2
2022-08-26T10:16:14.868Z,68.4
2022-08-26T10:17:31.103Z,70.2
2022-08-26T10:18:47.353Z,69.7
2022-08-26T10:20:03.572Z,68.3
2022-08-26T10:21:19.823Z,69.1
2022-08-26T10:22:36.057Z,67
2022-08-26T10:23:52.304Z,68.9
2022-08-26T10:25:08.539Z,67.5
2022-08-26T10:26:24.788Z,66.8
2022-08-26T10:27:41.026Z,65.9
2022-08-26T10:28:57.256Z,67.2
2022-08-26T10:30:13.508Z,66.1
2022-08-26T10:31:29.737Z,65.9
2022-08-26T10:32:45.006Z,66.1
2022-08-26T10:34:01.236Z,64.8
2022-08-26T10:35:17.485Z,65
2022-08-26T10:36:33.730Z,64.5
2022-08-26T10:37:49.961Z,67.2
2022-08-26T10:39:06.196Z,65.1
2022-08-26T10:40:22.437Z,64.4
2022-08-26T10:41:38.690Z,63.9
2022-08-26T10:42:54.931Z,65.2
2022-08-26T10:44:11.162Z,64.3
2022-08-26T10:45:27.413Z,64.8
2022-08-26T10:47:59.877Z,67.8
2022-08-26T10:49:15.136Z,65.3
2022-08-26T10:50:31.387Z,65.8
2022-08-26T10:51:47.621Z,63.7
2022-08-26T10:53:03.866Z,64
2022-08-26T10:54:20.108Z,64.6
2022-08-26T10:55:36.339Z,63.4
2022-08-26T10:56:52.586Z,64.7
2022-08-26T10:58:08.819Z,64
2022-08-26T10:59:25.065Z,63.9
2022-08-26T11:00:41.296Z,63.9
2022-08-26T11:01:57.536Z,62.6
2022-08-26T11:03:13.797Z,63.2
2022-08-26T11:04:30.017Z,69
2022-08-26T11:05:45.286Z,69.4
2022-08-26T11:07:01.514Z,65.9
2022-08-26T11:08:17.768Z,68.3
2022-08-26T11:09:34.004Z,70.9
2022-08-26T11:10:50.242Z,71.3
2022-08-26T11:12:06.489Z,70
2022-08-26T11:13:22.723Z,70.4
2022-08-26T11:14:38.977Z,70.3
2022-08-26T11:15:55.216Z,70.9
2022-08-26T11:17:11.454Z,72.2
2022-08-26T11:18:27.683Z,69.1
2022-08-26T11:19:43.929Z,70
2022-08-26T11:21:00.158Z,71.1
2022-08-26T11:22:15.417Z,65.9
2022-08-26T11:23:31.672Z,65
2022-08-26T11:24:47.904Z,66.3
2022-08-26T11:26:04.139Z,65.7
2022-08-26T11:27:20.382Z,64.2
2022-08-26T11:28:36.633Z,66.5
2022-08-26T11:29:52.875Z,66.3
2022-08-26T11:31:09.109Z,66.9
2022-08-26T11:32:25.344Z,65.3
2022-08-26T11:33:41.590Z,66.3
2022-08-26T11:34:57.819Z,64.3
2022-08-26T11:36:14.075Z,65.3
2022-08-26T11:37:30.000Z,65.4
2022-08-26T11:38:45.574Z,65.9
2022-08-26T11:40:01.800Z,66.8
2022-08-26T11:41:18.054Z,66.2
2022-08-26T11:43:50.534Z,67.5
2022-08-26T11:45:06.772Z,68.8
2022-08-26T11:46:23.008Z,68.7
2022-08-26T11:48:55.492Z,69.3
2022-08-26T11:50:11.729Z,67.1
2022-08-26T11:51:27.961Z,69.2
2022-08-26T11:54:00.439Z,69.4
2022-08-26T11:55:16.684Z,69.3
2022-08-26T11:56:32.933Z,69.7
2022-08-26T11:59:04.432Z,69.7
2022-08-26T12:00:19.697Z,70.1
2022-08-26T12:01:34.947Z,70
2022-08-26T12:02:51.189Z,70.1
2022-08-26T12:04:07.421Z,70.5
2022-08-26T12:05:23.678Z,70.6
2022-08-26T12:06:39.922Z,70.6
2022-08-26T12:07:56.160Z,70
2022-08-26T12:09:12.390Z,69.3
2022-08-26T12:10:28.632Z,69.4
2022-08-26T12:11:44.880Z,69.9
2022-08-26T12:13:01.108Z,69.4
2022-08-26T12:14:16.365Z,69.3
2022-08-26T12:15:31.631Z,69.6
2022-08-26T12:16:47.862Z,69.3
2022-08-26T12:18:04.101Z,69.4
2022-08-26T12:19:20.345Z,69.4
2022-08-26T12:20:36.600Z,69.4
2022-08-26T12:21:52.839Z,69.5
2022-08-26T12:23:09.064Z,69.7
2022-08-26T12:24:25.306Z,69.2
2022-08-26T12:25:41.550Z,69.4
2022-08-26T12:26:57.800Z,69.3
2022-08-26T12:28:14.028Z,69.2
2022-08-26T12:29:30.264Z,69.3
2022-08-26T12:30:46.511Z,69.7
2022-08-26T12:32:01.786Z,69.8
2022-08-26T12:33:18.012Z,70
2022-08-26T12:34:34.252Z,70.2
2022-08-26T12:35:50.491Z,70.4
2022-08-26T12:37:06.747Z,70.7
2022-08-26T12:38:22.980Z,70.2
2022-08-26T12:39:39.207Z,70.6
2022-08-26T12:40:55.461Z,70.3
2022-08-26T12:42:11.692Z,70.2
2022-08-26T12:43:27.943Z,69.3
2022-08-26T12:44:44.186Z,69.5
2022-08-26T12:46:00.424Z,69.2
2022-08-26T12:47:16.652Z,69.7
2022-08-26T12:48:31.915Z,70
2022-08-26T12:49:48.159Z,70.6
2022-08-26T12:51:04.389Z,71.5
2022-08-26T12:52:20.640Z,71.9
2022-08-26T12:53:36.875Z,72.3
2022-08-26T12:54:53.122Z,72.7
2022-08-26T12:56:09.360Z,72.6
2022-08-26T12:57:25.592Z,68.9
2022-08-26T12:58:41.832Z,69.9
2022-08-26T12:59:58.072Z,72
2022-08-26T13:01:14.324Z,72
2022-08-26T13:02:30.561Z,72.2
2022-08-26T13:05:03.030Z,72.2
2022-08-26T13:06:18.295Z,70
2022-08-26T13:07:34.535Z,71.1
2022-08-26T13:08:50.774Z,69.4
2022-08-26T13:10:07.020Z,71.7
2022-08-26T13:12:39.492Z,69.5
2022-08-26T13:13:55.747Z,68.8
2022-08-26T13:15:11.972Z,70
2022-08-26T13:16:28.220Z,68.2
2022-08-26T13:17:44.462Z,68.7
2022-08-26T13:19:00.700Z,70.4
2022-08-26T13:20:16.943Z,70.2
2022-08-26T13:21:33.169Z,68.7
2022-08-26T13:22:48.430Z,66.4
2022-08-26T13:24:04.684Z,67.6
2022-08-26T13:25:20.907Z,66
2022-08-26T13:26:37.148Z,66.2
2022-08-26T13:27:53.401Z,65.8
2022-08-26T13:29:09.639Z,65.8
2022-08-26T13:30:25.876Z,66.1
2022-08-26T13:31:42.119Z,67.6
2022-08-26T13:32:58.347Z,66.1
2022-08-26T13:34:14.599Z,67.7
2022-08-26T13:35:30.830Z,67.5
2022-08-26T13:36:47.070Z,68.6
2022-08-26T13:38:03.315Z,67.9
2022-08-26T13:39:18.576Z,67.9
2022-08-26T13:40:34.814Z,68.1
2022-08-26T13:43:07.285Z,68.1
2022-08-26T13:44:23.542Z,66.2
2022-08-26T13:45:39.768Z,67.5
2022-08-26T13:46:56.014Z,68.8
2022-08-26T13:48:12.258Z,69.5
2022-08-26T13:50:44.736Z,68.8
2022-08-26T13:52:00.967Z,66.9
2022-08-26T13:53:17.224Z,66.4
2022-08-26T13:54:33.462Z,67.8
2022-08-26T13:55:48.716Z,67.9
2022-08-26T13:57:04.949Z,66.3
2022-08-26T13:58:21.204Z,65.6
2022-08-26T13:59:37.436Z,68
2022-08-26T14:00:53.668Z,65.1
2022-08-26T14:02:09.924Z,66.3
2022-08-26T14:03:26.148Z,64.3
2022-08-26T14:07:14.890Z,65.5
2022-08-26T14:08:30.136Z,65
2022-08-26T14:09:45.407Z,65.1
2022-08-26T14:11:01.648Z,66.3
2022-08-26T14:13:34.113Z,64.1
2022-08-26T14:14:50.368Z,64.6
2022-08-26T14:16:06.590Z,65.5
2022-08-26T14:17:22.840Z,66.2
2022-08-26T14:18:39.080Z,67.3
2022-08-26T14:19:55.319Z,68.1
2022-08-26T14:21:11.568Z,68.4
2022-08-26T14:22:27.790Z,68.1
2022-08-26T14:23:44.049Z,68.7
2022-08-26T14:25:00.283Z,69.1
2022-08-26T14:26:15.531Z,68.1
2022-08-26T14:28:48.022Z,68.6
2022-08-26T14:31:19.522Z,67.8
2022-08-26T14:32:34.793Z,67.9
2022-08-26T14:33:50.044Z,67.9
2022-08-26T14:35:06.273Z,66.9
2022-08-26T14:36:22.526Z,66.6
2022-08-26T14:37:38.752Z,66.8
2022-08-26T14:38:55.001Z,66.7
2022-08-26T14:40:11.249Z,67
2022-08-26T14:41:27.479Z,66.9
2022-08-26T14:42:43.717Z,67
2022-08-26T14:43:59.954Z,67.4
2022-08-26T14:46:32.441Z,68.1
2022-08-26T14:47:48.682Z,68.3
2022-08-26T14:49:04.933Z,68.1
2022-08-26T14:51:36.427Z,68
2022-08-26T14:52:52.659Z,68.4
2022-08-26T14:54:08.908Z,67.5
2022-08-26T14:55:25.131Z,67.7
2022-08-26T14:56:41.385Z,67.7
2022-08-26T14:57:57.620Z,67.4
2022-08-26T14:59:13.862Z,67.5
2022-08-26T15:00:30.109Z,67.2
2022-08-26T15:01:46.352Z,68.5
2022-08-26T15:03:02.592Z,69.5
2022-08-26T15:04:18.822Z,68.9
2022-08-26T15:06:51.313Z,70.3
2022-08-26T15:08:06.554Z,70.5
2022-08-26T15:09:22.811Z,71.6
2022-08-26T15:10:39.034Z,71.8
2022-08-26T15:11:55.278Z,72
2022-08-26T15:13:11.513Z,71.5
2022-08-26T15:14:27.755Z,69.6
2022-08-26T15:15:44.008Z,69.7
2022-08-26T15:17:00.241Z,69.3
2022-08-26T15:18:15.511Z,70.8
2022-08-26T15:19:30.756Z,69.8
2022-08-26T15:20:47.010Z,71.8
2022-08-26T15:22:03.244Z,71.3
2022-08-26T15:23:19.489Z,70.7
2022-08-26T15:24:35.731Z,70.5
2022-08-26T15:25:51.970Z,72
2022-08-26T15:27:08.214Z,71.3
2022-08-26T15:28:24.436Z,70.6
2022-08-26T15:29:40.685Z,70
2022-08-26T15:30:56.925Z,69.5
2022-08-26T15:32:13.167Z,70.6
2022-08-26T15:33:28.432Z,71
2022-08-26T15:34:43.676Z,71.3
2022-08-26T15:37:16.164Z,71.1
2022-08-26T15:39:48.655Z,71.3
2022-08-26T15:41:04.885Z,71.2
2022-08-26T15:42:21.124Z,70.7
2022-08-26T15:44:53.598Z,71.4
2022-08-26T15:46:09.855Z,72.6
2022-08-26T15:47:26.097Z,72.5
2022-08-26T15:49:58.578Z,72.3
2022-08-26T15:51:13.830Z,71.4
2022-08-26T15:52:29.078Z,72.8
2022-08-26T15:53:44.339Z,73.2
2022-08-26T15:55:00.575Z,73.2
2022-08-26T15:56:16.817Z,72.5
2022-08-26T15:57:33.074Z,72.5
2022-08-26T15:58:49.303Z,72.6
2022-08-26T16:00:05.547Z,72.2
2022-08-26T16:01:21.790Z,72
2022-08-26T16:02:38.035Z,72.4
2022-08-26T16:03:54.275Z,72.2
2022-08-26T16:05:10.506Z,73.1
2022-08-26T16:07:42.019Z,73.7
2022-08-26T16:08:57.274Z,74.9
2022-08-26T16:10:13.504Z,74.2
2022-08-26T16:11:29.739Z,74.5
2022-08-26T16:12:45.979Z,73.8
2022-08-26T16:14:02.232Z,74.3
2022-08-26T16:15:18.469Z,75.1
2022-08-26T16:16:34.702Z,76.3
2022-08-26T16:17:50.936Z,76.2
2022-08-26T16:19:07.192Z,75.4
2022-08-26T16:20:22.459Z,74.7
2022-08-26T16:22:53.953Z,75.6
2022-08-26T16:24:10.189Z,75
2022-08-26T16:25:26.436Z,75.6
2022-08-26T16:26:42.664Z,75.5
2022-08-26T16:27:58.910Z,75.9
2022-08-26T16:29:15.145Z,76
2022-08-26T16:30:31.393Z,76.7
2022-08-26T16:31:47.629Z,76.6
2022-08-26T16:33:03.864Z,76.3
2022-08-26T16:34:20.108Z,76.5
2022-08-26T16:35:36.339Z,75.3
2022-08-26T16:36:52.588Z,75.3
2022-08-26T16:38:07.848Z,75.6
2022-08-26T16:40:40.334Z,74.3
2022-08-26T16:41:56.562Z,73.9
2022-08-26T16:43:12.812Z,75.3
2022-08-26T16:45:45.294Z,74.9
2022-08-26T16:47:00.560Z,75.7
2022-08-26T16:48:15.820Z,75.7
2022-08-26T16:49:32.065Z,75.8
2022-08-26T16:50:48.287Z,76.3
2022-08-26T16:52:04.544Z,76.8
2022-08-26T16:53:20.778Z,76.5
2022-08-26T16:54:37.009Z,76.7
2022-08-26T16:55:53.254Z,77.1
2022-08-26T16:57:09.493Z,76.5
2022-08-26T16:58:25.740Z,76.8
2022-08-26T17:00:58.217Z,77.7
2022-08-26T17:02:14.463Z,78.3
2022-08-26T17:03:30.694Z,78.3
2022-08-26T17:04:45.963Z,78.8
2022-08-26T17:06:02.194Z,78.3
2022-08-26T17:07:18.436Z,78.9
2022-08-26T17:08:34.681Z,79.3
2022-08-26T17:09:50.909Z,79.4
2022-08-26T17:11:07.097Z,79.6
2022-08-26T17:12:23.347Z,79.8
2022-08-26T17:13:39.578Z,80
2022-08-26T17:14:54.849Z,80.2
2022-08-26T17:16:10.101Z,80.5
2022-08-26T17:17:26.333Z,80.4
2022-08-26T17:18:42.581Z,80.8
2022-08-26T17:19:58.816Z,81
2022-08-26T17:21:15.063Z,81.1
2022-08-26T17:23:47.556Z,81.3
2022-08-26T17:25:03.784Z,81.7
2022-08-26T17:26:20.015Z,81.8
2022-08-26T17:27:36.263Z,81.5
2022-08-26T17:28:52.498Z,81.8
2022-08-26T17:30:08.741Z,82.3
2022-08-26T17:31:24.992Z,82
2022-08-26T17:32:40.250Z,82.3
2022-08-26T17:33:56.491Z,82.3
2022-08-26T17:35:12.716Z,82.8
2022-08-26T17:36:28.953Z,82.7
2022-08-26T17:37:45.203Z,83
2022-08-26T17:39:01.449Z,83.2
2022-08-26T17:40:17.673Z,83.4
2022-08-26T17:41:33.929Z,83.5
2022-08-26T17:42:50.159Z,83.8
2022-08-26T17:44:06.400Z,84
2022-08-26T17:45:22.636Z,84.2
2022-08-26T17:46:38.873Z,84.4
2022-08-26T17:47:55.133Z,84.5
2022-08-26T17:49:10.371Z,84.6
2022-08-26T17:50:26.624Z,84.8
2022-08-26T17:51:42.866Z,84.7
2022-08-26T17:52:59.093Z,84.8
2022-08-26T17:54:15.345Z,84.8
2022-08-26T17:55:31.574Z,84.7
2022-08-26T17:56:47.817Z,84.9
2022-08-26T17:58:04.063Z,85.1
2022-08-26T17:59:20.308Z,85.4
2022-08-26T18:00:36.535Z,85.4
2022-08-26T18:01:52.777Z,85.4
2022-08-26T18:03:09.021Z,85.6
2022-08-26T18:04:25.268Z,85.7
2022-08-26T18:05:40.509Z,85.8
2022-08-26T18:06:56.759Z,85.9
2022-08-26T18:09:29.243Z,86.1
2022-08-26T18:10:45.469Z,86.2
2022-08-26T18:12:01.711Z,86.3
2022-08-26T18:13:17.960Z,86.1
2022-08-26T18:14:34.209Z,86.3
2022-08-26T18:15:50.443Z,86.7
2022-08-26T18:17:06.686Z,86.7
2022-08-26T18:18:22.915Z,86.7
2022-08-26T18:19:39.159Z,86.6